Milford, Utah Weather observations

Data are for observation ending at time listed.
 Day   Time    Ave.   Ave.  Ave.  Vector   Max.   Stn.    Total    Solar   Ave.  
  of    of     Air    Rel.  Wind   Wind    Wind   Baro.  Precip.   Rad.    Soil  
Year   Day     Temp.  Hum.  Speed  Dir.    Gust   Pres.                    Temp. 
2016   (MST)    F      %     mph   deg.    mph     mb.     in.     W/m2     F   
------------------------------------------------------------------------------
 272   11:40   72.6    26    2.7    42      5.9   852.5    0.00     530    62.2
 272   11:50   74.8    24    1.0    44      3.9   852.3    0.00     552    62.1
 272   12:00   75.3    24    1.6    15      4.7   852.2    0.00     590    62.2
 272   12:10   77.3    22    0.9    47      3.4   852.2    0.00     531    62.3
 272   12:20   75.9    26    0.7   192      2.5   852.3    0.00     196    62.3
 272   12:30   75.0    27    0.6   233      2.6   852.2    0.00     245    62.3
 272   12:40   75.3    26    1.6   164      3.9   852.0    0.00     365    62.2
 272   12:50   78.3    24    0.9   126      4.2   851.8    0.00     755    62.4
 272   13:00   79.2    21    1.7    59      4.7   851.9    0.00     506    62.5
 272   13:10   77.7    21    2.4    38      5.9   852.0    0.00     427    62.5
 272   13:20   77.9    23    0.7    42      3.1   851.9    0.00     249    62.6
 272   13:30   77.7    22    2.0    29      4.2   851.8    0.00     403    62.7
 272   13:40   77.5    22    1.9    39      5.6   851.7    0.00     157    62.7
 272   13:50   76.4    22    2.4    39      5.0   851.6    0.00      95    62.8
 272   14:00   75.1    29    4.2    68     15.3   851.9    0.00      98    62.9
 272   14:10   73.3    34    3.6    74      8.8   851.8    0.00     664    63.1
 272   14:20   74.8    31   10.1    35     18.5   851.6    0.00     657    63.2
 272   14:30   73.9    32   11.4    34     18.6   851.6    0.00     535    63.2
 272   14:40   73.2    31   11.2    30     18.5   851.6    0.00     371    63.2
 272   14:50   73.4    30   10.3    16     16.7   851.5    0.00     474    63.2
 272   15:00   74.5    30    7.4    13     13.6   851.5    0.00     574    63.2
 272   15:10   74.0    30    7.5    13     13.5   851.5    0.00     200    63.4
 272   15:20   73.5    30    7.4    13     14.4   851.4    0.00     133    63.4
 272   15:30   72.8    33    7.7    14     13.5   851.2    0.00      85    63.4
 272   15:40   71.8    34    7.8    11     15.6   851.0    0.00      88    63.5
 272   15:50   71.4    34    7.7    11     13.8   850.9    0.00     107    63.4
 272   16:00   71.5    34    6.8    10     13.7   850.7    0.00     123    63.7
 272   16:10   71.4    35    6.9     7     11.6   850.6    0.00      69    63.5
 272   16:20   71.3    34    5.3     6     11.4   850.6    0.00      51    63.6
 272   16:30   71.0    35    4.1     9      9.1   850.9    0.00      49    63.5
 272   16:40   70.7    38    5.2    32     10.7   851.2    0.00      50    63.6
 272   16:50   70.0    39    5.2   144     16.6   851.4    0.00      57    63.5
 272   17:00   67.0    49    8.5   154     17.5   851.2    0.00      66    63.6
 272   17:10   67.6    44    3.7   166     10.2   851.0    0.00      57    63.8
 272   17:20   68.2    44    2.9   172      6.8   850.8    0.00      52    63.8
 272   17:30   68.0    45    2.1   174      3.7   850.8    0.00      32    63.7
 272   17:40   67.4    48    0.0   166      1.4   850.7    0.00      22    63.8
 272   17:50   66.9    49    0.2   144      8.3   850.7    0.00      27    63.8
 272   18:00   66.5    50    2.2   158      8.0   850.7    0.00      25    63.8
 272   18:10   66.7    49    6.9   154     12.6   850.9    0.00      11    63.8
 272   18:20   66.2    51    4.1   159      8.9   851.0    0.00       4    63.8
 272   18:30   65.5    52    1.0   250      2.3   850.8    0.00       1    63.9
 272   18:40   64.7    54    0.1   251      0.7   850.7    0.00       0    63.9
 272   18:50   64.3    54    0.0     0      0.0   850.7    0.00       0    63.8
 272   19:00   64.2    55    0.0     0      0.0   850.6    0.00       0    63.9
 272   19:10   64.3    55    0.7   273      2.1   850.6    0.00       0    63.9
 272   19:20   63.5    57    0.2   275      2.0   850.5    0.00       0    64.0
 272   19:30   62.3    58    1.1   277      2.0   850.5    0.00       0    64.0
 272   19:40   62.0    57    0.7   283      1.6   850.4    0.00       0    63.8
 272   19:50   61.1    63    0.0   132      0.7   850.5    0.00       0    63.9
 272   20:00   59.4    65    0.0     0      0.0   850.5    0.00       0    63.9
 272   20:10   59.0    66    0.0    56      1.5   850.5    0.00       0    64.0
 272   20:20   58.7    66    0.7   265      2.0   850.5    0.00       0    63.8
 272   20:30   58.9    66    0.3   265      1.5   850.6    0.00       0    63.9
 272   20:40   59.1    66    0.0     0      0.0   850.7    0.00       0    63.9
 272   20:50   59.1    66    0.3   273      1.8   850.7    0.00       0    63.9
 272   21:00   59.2    65    0.0     0      0.0   850.7    0.00       0    64.0
 272   21:10   58.8    64    0.0     0      0.0   850.7    0.00       0    63.9
 272   21:20   58.6    64    0.2    53      2.0   850.8    0.00       0    63.9
 272   21:30   58.1    66    0.8   214      2.1   850.9    0.00       0    63.9
 272   21:40   58.8    62    1.4   253      2.7   850.9    0.00       0    63.9
 272   21:50   59.4    62    0.8   165      4.0   851.0    0.00       0    63.9
 272   22:00   57.6    64    2.0   170      4.8   851.2    0.00       0    63.9
 272   22:10   56.9    65    1.8   171      3.7   851.3    0.00       0    63.9
 272   22:20   56.8    67    1.3   196      3.4   851.3    0.00       0    63.9
 272   22:30   58.0    64    1.6   201      3.6   851.2    0.00       0    63.9
 272   22:40   59.4    61    1.7   186      4.6   851.2    0.00       0    63.9
 272   22:50   59.9    61    1.4   190      3.1   851.1    0.00       0    63.9
 272   23:00   59.8    62    1.2   226      3.6   851.1    0.00       0    63.9
 272   23:10   59.5    62    0.4   243      2.4   851.2    0.00       0    63.8
 272   23:20   59.5    63    0.0     0      0.0   851.1    0.00       0    63.8
 272   23:30   59.5    63    0.0     0      0.0   851.1    0.00       0    63.8
 272   23:40   59.3    63    0.0     0      0.0   851.1    0.00       0    63.8
 272   23:50   58.0    65    0.6   237      2.0   851.1    0.00       0    63.8
 273    0:00   56.9    67    0.3   256      2.0   851.1    0.00       0    63.8
 273    0:10   56.0    69    0.0     0      0.0   851.1    0.00       0    63.7
 273    0:20   55.3    70    0.0     0      0.0   851.1    0.00       0    63.8
 273    0:30   54.7    71    0.0     0      0.0   851.0    0.00       0    63.6
 273    0:40   54.4    71    0.0   203      1.2   851.0    0.00       0    63.6
 273    0:50   53.9    73    0.3   138      2.0   850.9    0.00       0    63.7
 273    1:00   53.0    74    0.0   106      1.0   850.9    0.00       0    63.7
 273    1:10   52.5    76    0.0     0      0.0   850.8    0.00       0    63.8
 273    1:20   52.3    76    0.0     0      0.0   850.7    0.00       0    63.8
 273    1:30   52.2    77    0.1   222      0.8   850.7    0.00       0    63.7
 273    1:40   52.2    77    1.2   209      3.1   850.7    0.00       0    63.6
 273    1:50   52.3    77    1.4   198      3.0   850.8    0.00       0    63.6
 273    2:00   52.0    78    0.9   207      2.3   850.8    0.00       0    63.4
 273    2:10   51.5    79    0.4   227      2.0   850.8    0.00       0    63.5
 273    2:20   51.1    79    0.2   243      1.5   850.6    0.00       0    63.6
 273    2:30   51.0    79    0.9   224      2.4   850.6    0.00       0    63.4
 273    2:40   51.4    79    0.6   250      2.5   850.5    0.00       0    63.5
 273    2:50   51.7    78    1.2   249      2.6   850.4    0.00       0    63.5
 273    3:00   51.6    78    0.5   239      2.9   850.5    0.00       0    63.4
 273    3:10   51.8    78    1.0   204      2.1   850.5    0.00       0    63.5
 273    3:20   51.0    79    0.7   242      2.0   850.6    0.00       0    63.4
 273    3:30   50.6    79    2.0   254      3.6   850.6    0.00       0    63.3
 273    3:40   50.2    79    0.4   250      2.5   850.6    0.00       0    63.4
 273    3:50   49.4    80    0.3   174      1.7   850.7    0.00       0    63.3
 273    4:00   48.5    81    0.8   177      2.8   850.8    0.00       0    63.2
 273    4:10   48.1    82    0.5   238      1.4   850.8    0.00       0    63.3
 273    4:20   48.7    84    0.7   223      1.8   850.8    0.00       0    63.3
 273    4:30   49.3    83    0.8   217      2.3   850.9    0.00       0    63.3
 273    4:40   49.6    82    1.4   221      3.7   850.9    0.00       0    63.2
 273    4:50   50.1    82    1.2   228      3.3   850.9    0.00       0    63.2
 273    5:00   50.0    79    2.1   198      3.8   850.9    0.00       0    63.2
 273    5:10   49.0    80    3.0   178      6.2   851.0    0.00       0    63.2
 273    5:20   46.5    82    1.6   190      3.0   851.1    0.00       0    63.1
 273    5:30   46.6    85    1.7   184      3.5   851.1    0.00       0    63.1
 273    5:40   46.8    85    1.7   189      4.0   851.1    0.00       0    63.1
 273    5:50   46.7    86    1.3   196      4.2   851.0    0.00       0    63.0
 273    6:00   46.8    86    1.1   195      2.3   851.0    0.00       0    62.9
 273    6:10   46.9    86    0.9   202      2.7   851.1    0.00       0    63.0
 273    6:20   47.1    87    1.1   206      3.0   851.1    0.00       1    62.9
 273    6:30   47.3    87    1.1   209      2.8   851.2    0.00       3    62.9
 273    6:40   47.4    87    1.3   218      3.7   851.3    0.00       3    62.9
 273    6:50   47.2    86    1.4   189      3.1   851.4    0.00       9    62.9
 273    7:00   47.5    85    1.0   224      3.5   851.5    0.00      10    62.8
 273    7:10   48.4    84    1.6   229      3.1   851.6    0.00      13    62.8
 273    7:20   49.8    82    1.4   215      3.6   851.7    0.00      18    62.8
 273    7:30   51.2    79    2.1   200      5.0   851.8    0.00     138    62.8
 273    7:40   53.0    76    3.1   166      4.4   852.0    0.00     139    62.7
 273    7:50   55.4    73    3.0   166      7.1   852.3    0.00     196    62.6
 273    8:00   57.4    69    4.5   161      6.8   852.5    0.00     224    62.6
 273    8:10   59.2    66    5.2   161      8.1   852.8    0.00     250    62.7
 273    8:20   61.4    64    4.6   159      8.1   852.9    0.00     277    62.5
 273    8:30   63.2    60    4.4   173      8.6   853.1    0.00     303    62.5
 273    8:40   64.5    57    4.7   179      9.6   853.4    0.00     333    62.5
 273    8:50   65.3    56    4.3   175      9.9   853.7    0.00     357    62.4
 273    9:00   66.2    54    3.9   181     11.9   853.9    0.00     383    62.5
 273    9:10   66.3    53    5.6   178     13.7   854.2    0.00     411    62.5
 273    9:20   66.6    52    5.7   176     10.4   854.3    0.00     304    62.3
 273    9:30   65.6    54    5.3   176     11.0   854.4    0.00     201    62.4
 273    9:40   65.2    52    5.5   174     11.5   854.4    0.00     200    62.2
 273    9:50   67.4    48    6.1   175     13.3   854.3    0.00     486    62.3
 273   10:00   68.6    47    7.3   173     13.8   854.3    0.00     529    62.3
 273   10:10   68.9    47    6.6   176     14.0   854.5    0.00     496    62.2
 273   10:20   69.2    47    7.6   172     14.3   854.5    0.00     558    62.3
 273   10:30   70.4    46    5.9   179     14.5   854.5    0.00     573    62.3
 273   10:40   70.9    45    7.0   174     13.0   854.5    0.00     589    62.3
 273   10:50   71.8    42    6.9   168     13.8   854.5    0.00     609    62.4
 273   11:00   72.0    41    7.9   159     14.0   854.6    0.00     626    62.5
 273   11:10   73.0    40    6.4   163     12.6   854.7    0.00     660    62.5
 273   11:20   73.8    38    4.7   176     13.8   854.6    0.00     503    62.4
 273   11:30   72.4    39    5.1   178     12.0   854.6    0.00     276    62.3

Return to Milford, Utah graphs page.


Western Regional Climate Center,wrcc@dri.edu